Terminal Aerodrome Forecast
Issued by NWS Charleston, WV

Current Version | Previous Version | Graphics & Text | Print | Product List | Glossary On
Versions: 1 2 3 4 5 6 7 8 9 10 11 12 13 14 15 16 17 18 19 20 21
352
FTUS41 KRLX 091503 AAA
TAFCRW
TAF AMD
KCRW 091503Z 0915/1012 25007KT 4SM -SHSN SCT015 OVC025
      TEMPO 0915/0917 2SM -SHSN BR SCT007 OVC015
     FM091700 26009KT 2SM -SHSN BR SCT006 OVC010
     FM092100 27008KT 5SM -SHSN OVC015
     FM100600 26009KT P6SM OVC020=

USA.gov is the U.S. government's official web portal to all federal, state and local government web resources and services.